sensor_id;sensor_type;location;lat;lon;timestamp;pressure;altitude;pressure_sealevel;temperature;humidity
6829;BME280;17930;48.592;8.868;2024-02-23T00:01:47;94907.78;;;5.09;100.00
6829;BME280;17930;48.592;8.868;2024-02-23T00:04:14;94903.13;;;5.11;100.00
6829;BME280;17930;48.592;8.868;2024-02-23T00:06:41;94897.09;;;5.16;100.00
6829;BME280;17930;48.592;8.868;2024-02-23T00:09:08;94904.06;;;5.15;100.00
6829;BME280;17930;48.592;8.868;2024-02-23T00:11:39;94894.81;;;5.14;100.00
6829;BME280;17930;48.592;8.868;2024-02-23T00:14:09;94900.84;;;5.23;100.00
6829;BME280;17930;48.592;8.868;2024-02-23T00:16:38;94913.00;;;5.23;100.00
6829;BME280;17930;48.592;8.868;2024-02-23T00:19:05;94906.00;;;5.23;100.00
6829;BME280;17930;48.592;8.868;2024-02-23T00:21:31;94915.78;;;5.26;100.00
6829;BME280;17930;48.592;8.868;2024-02-23T00:23:58;94913.97;;;5.27;100.00
6829;BME280;17930;48.592;8.868;2024-02-23T00:26:25;94921.22;;;5.25;100.00
6829;BME280;17930;48.592;8.868;2024-02-23T00:28:55;94928.22;;;5.24;100.00
6829;BME280;17930;48.592;8.868;2024-02-23T00:31:22;94924.31;;;5.27;100.00
6829;BME280;17930;48.592;8.868;2024-02-23T00:33:48;94926.13;;;5.26;100.00
6829;BME280;17930;48.592;8.868;2024-02-23T00:36:15;94924.31;;;5.27;100.00
6829;BME280;17930;48.592;8.868;2024-02-23T00:38:42;94919.50;;;5.20;100.00
6829;BME280;17930;48.592;8.868;2024-02-23T00:41:09;94913.75;;;5.23;100.00
6829;BME280;17930;48.592;8.868;2024-02-23T00:43:39;94899.31;;;5.22;100.00
6829;BME280;17930;48.592;8.868;2024-02-23T00:46:07;94902.75;;;5.18;100.00
6829;BME280;17930;48.592;8.868;2024-02-23T00:48:34;94907.72;;;5.14;100.00
6829;BME280;17930;48.592;8.868;2024-02-23T00:51:01;94936.03;;;5.19;100.00
6829;BME280;17930;48.592;8.868;2024-02-23T00:53:28;94928.78;;;5.21;100.00
6829;BME280;17930;48.592;8.868;2024-02-23T00:55:55;94919.41;;;5.25;100.00
6829;BME280;17930;48.592;8.868;2024-02-23T00:58:21;94915.38;;;5.19;100.00
6829;BME280;17930;48.592;8.868;2024-02-23T01:00:48;94918.81;;;5.15;100.00
6829;BME280;17930;48.592;8.868;2024-02-23T01:03:16;94940.59;;;5.09;100.00
6829;BME280;17930;48.592;8.868;2024-02-23T01:05:43;94929.88;;;5.02;100.00
6829;BME280;17930;48.592;8.868;2024-02-23T01:08:09;94924.50;;;4.99;100.00
6829;BME280;17930;48.592;8.868;2024-02-23T01:10:36;94913.44;;;5.11;100.00
6829;BME280;17930;48.592;8.868;2024-02-23T01:13:03;94908.75;;;5.13;100.00
6829;BME280;17930;48.592;8.868;2024-02-23T01:15:30;94922.25;;;5.10;100.00
6829;BME280;17930;48.592;8.868;2024-02-23T01:17:57;94932.00;;;5.13;100.00
6829;BME280;17930;48.592;8.868;2024-02-23T01:20:25;94927.97;;;5.07;100.00
6829;BME280;17930;48.592;8.868;2024-02-23T01:22:52;94941.75;;;5.03;100.00
6829;BME280;17930;48.592;8.868;2024-02-23T01:25:18;94935.78;;;5.03;100.00
6829;BME280;17930;48.592;8.868;2024-02-23T01:27:45;94933.16;;;5.07;100.00
6829;BME280;17930;48.592;8.868;2024-02-23T01:30:12;94934.75;;;5.04;100.00
6829;BME280;17930;48.592;8.868;2024-02-23T01:32:39;94943.06;;;5.01;100.00
6829;BME280;17930;48.592;8.868;2024-02-23T01:35:06;94949.25;;;5.00;100.00
6829;BME280;17930;48.592;8.868;2024-02-23T01:37:35;94955.84;;;4.92;100.00
6829;BME280;17930;48.592;8.868;2024-02-23T01:40:02;94955.09;;;4.92;100.00
6829;BME280;17930;48.592;8.868;2024-02-23T01:42:29;94952.56;;;4.87;100.00
6829;BME280;17930;48.592;8.868;2024-02-23T01:44:56;94958.09;;;4.80;100.00
6829;BME280;17930;48.592;8.868;2024-02-23T01:47:23;94962.47;;;4.80;100.00
6829;BME280;17930;48.592;8.868;2024-02-23T01:49:51;94962.47;;;4.80;100.00
6829;BME280;17930;48.592;8.868;2024-02-23T01:52:19;94959.59;;;4.81;100.00
6829;BME280;17930;48.592;8.868;2024-02-23T01:54:48;94955.28;;;4.77;100.00
6829;BME280;17930;48.592;8.868;2024-02-23T01:57:15;94967.63;;;4.80;100.00
6829;BME280;17930;48.592;8.868;2024-02-23T01:59:42;94972.88;;;4.75;100.00
6829;BME280;17930;48.592;8.868;2024-02-23T02:02:09;94965.25;;;4.65;100.00
6829;BME280;17930;48.592;8.868;2024-02-23T02:04:36;94972.31;;;4.59;100.00
6829;BME280;17930;48.592;8.868;2024-02-23T02:07:03;94979.25;;;4.59;100.00
6829;BME280;17930;48.592;8.868;2024-02-23T02:09:30;94995.09;;;4.53;100.00
6829;BME280;17930;48.592;8.868;2024-02-23T02:11:58;94995.38;;;4.51;100.00
6829;BME280;17930;48.592;8.868;2024-02-23T02:14:25;94995.03;;;4.57;100.00
6829;BME280;17930;48.592;8.868;2024-02-23T02:16:55;94994.66;;;4.69;100.00
6829;BME280;17930;48.592;8.868;2024-02-23T02:19:22;94989.81;;;4.81;100.00
6829;BME280;17930;48.592;8.868;2024-02-23T02:21:49;94997.50;;;4.86;100.00
6829;BME280;17930;48.592;8.868;2024-02-23T02:24:15;94989.00;;;4.85;100.00
6829;BME280;17930;48.592;8.868;2024-02-23T02:26:42;94982.28;;;4.84;100.00
6829;BME280;17930;48.592;8.868;2024-02-23T02:29:13;94976.91;;;4.81;100.00
6829;BME280;17930;48.592;8.868;2024-02-23T02:31:40;94973.78;;;4.84;100.00
6829;BME280;17930;48.592;8.868;2024-02-23T02:34:06;94964.06;;;4.94;100.00
6829;BME280;17930;48.592;8.868;2024-02-23T02:36:34;94952.91;;;4.99;100.00
6829;BME280;17930;48.592;8.868;2024-02-23T02:39:00;94961.19;;;4.96;100.00
6829;BME280;17930;48.592;8.868;2024-02-23T02:41:29;94948.72;;;4.84;100.00
6829;BME280;17930;48.592;8.868;2024-02-23T02:43:56;94943.78;;;4.88;100.00
6829;BME280;17930;48.592;8.868;2024-02-23T02:46:24;94947.19;;;4.83;100.00
6829;BME280;17930;48.592;8.868;2024-02-23T02:48:51;94957.88;;;4.77;100.00
6829;BME280;17930;48.592;8.868;2024-02-23T02:51:17;94954.56;;;4.71;100.00
6829;BME280;17930;48.592;8.868;2024-02-23T02:53:44;94954.31;;;4.73;100.00
6829;BME280;17930;48.592;8.868;2024-02-23T02:56:11;94960.09;;;4.65;100.00
6829;BME280;17930;48.592;8.868;2024-02-23T02:58:37;94954.88;;;4.70;100.00
6829;BME280;17930;48.592;8.868;2024-02-23T03:01:04;94935.47;;;4.72;100.00
6829;BME280;17930;48.592;8.868;2024-02-23T03:03:32;94933.31;;;4.61;100.00
6829;BME280;17930;48.592;8.868;2024-02-23T03:05:59;94950.34;;;4.62;100.00
6829;BME280;17930;48.592;8.868;2024-02-23T03:08:26;94944.19;;;4.58;100.00
6829;BME280;17930;48.592;8.868;2024-02-23T03:10:52;94939.88;;;4.54;100.00
6829;BME280;17930;48.592;8.868;2024-02-23T03:13:19;94935.88;;;4.61;100.00
6829;BME280;17930;48.592;8.868;2024-02-23T03:15:46;94931.72;;;4.65;100.00
6829;BME280;17930;48.592;8.868;2024-02-23T03:18:12;94932.56;;;4.60;100.00
6829;BME280;17930;48.592;8.868;2024-02-23T03:20:42;94944.75;;;4.55;100.00
6829;BME280;17930;48.592;8.868;2024-02-23T03:23:09;94940.69;;;4.49;100.00
6829;BME280;17930;48.592;8.868;2024-02-23T03:25:36;94936.88;;;4.47;100.00
6829;BME280;17930;48.592;8.868;2024-02-23T03:28:03;94939.72;;;4.45;100.00
6829;BME280;17930;48.592;8.868;2024-02-23T03:30:30;94933.16;;;4.34;100.00
6829;BME280;17930;48.592;8.868;2024-02-23T03:32:56;94935.25;;;4.32;100.00
6829;BME280;17930;48.592;8.868;2024-02-23T03:35:23;94944.03;;;4.31;100.00
6829;BME280;17930;48.592;8.868;2024-02-23T03:37:51;94950.72;;;4.32;100.00
6829;BME280;17930;48.592;8.868;2024-02-23T03:40:18;94944.22;;;4.35;100.00
6829;BME280;17930;48.592;8.868;2024-02-23T03:42:45;94953.34;;;4.27;100.00
6829;BME280;17930;48.592;8.868;2024-02-23T03:45:11;94962.13;;;4.26;100.00
6829;BME280;17930;48.592;8.868;2024-02-23T03:47:38;94969.38;;;4.24;100.00
6829;BME280;17930;48.592;8.868;2024-02-23T03:50:06;94975.69;;;4.13;100.00
6829;BME280;17930;48.592;8.868;2024-02-23T03:52:32;94977.06;;;4.06;100.00
6829;BME280;17930;48.592;8.868;2024-02-23T03:55:00;94976.09;;;4.02;100.00
6829;BME280;17930;48.592;8.868;2024-02-23T03:57:29;94966.75;;;4.06;100.00
6829;BME280;17930;48.592;8.868;2024-02-23T03:59:56;94952.94;;;3.97;100.00
6829;BME280;17930;48.592;8.868;2024-02-23T04:02:23;94952.50;;;3.90;100.00
6829;BME280;17930;48.592;8.868;2024-02-23T04:04:50;94964.66;;;3.85;100.00
6829;BME280;17930;48.592;8.868;2024-02-23T04:07:16;94969.59;;;3.81;100.00
6829;BME280;17930;48.592;8.868;2024-02-23T04:09:43;94956.13;;;3.89;100.00
6829;BME280;17930;48.592;8.868;2024-02-23T04:12:12;94961.66;;;3.78;100.00
6829;BME280;17930;48.592;8.868;2024-02-23T04:14:38;94965.31;;;3.72;100.00
6829;BME280;17930;48.592;8.868;2024-02-23T04:17:05;94953.91;;;3.78;100.00
6829;BME280;17930;48.592;8.868;2024-02-23T04:19:33;94965.78;;;3.79;100.00
6829;BME280;17930;48.592;8.868;2024-02-23T04:21:59;94961.91;;;3.76;100.00
6829;BME280;17930;48.592;8.868;2024-02-23T04:24:26;94968.91;;;3.76;100.00
6829;BME280;17930;48.592;8.868;2024-02-23T04:26:53;94952.03;;;3.60;100.00
6829;BME280;17930;48.592;8.868;2024-02-23T04:29:21;94948.84;;;3.45;100.00
6829;BME280;17930;48.592;8.868;2024-02-23T04:31:47;94952.28;;;3.30;100.00
6829;BME280;17930;48.592;8.868;2024-02-23T04:34:15;94951.41;;;3.16;100.00
6829;BME280;17930;48.592;8.868;2024-02-23T04:36:41;94969.53;;;3.02;100.00
6829;BME280;17930;48.592;8.868;2024-02-23T04:39:08;94957.41;;;3.02;100.00
6829;BME280;17930;48.592;8.868;2024-02-23T04:41:35;94958.28;;;2.88;100.00
6829;BME280;17930;48.592;8.868;2024-02-23T04:44:02;94965.03;;;2.79;100.00
6829;BME280;17930;48.592;8.868;2024-02-23T04:46:30;94967.50;;;2.94;100.00
6829;BME280;17930;48.592;8.868;2024-02-23T04:48:57;94959.75;;;2.99;100.00
6829;BME280;17930;48.592;8.868;2024-02-23T04:51:24;94949.00;;;2.92;100.00
6829;BME280;17930;48.592;8.868;2024-02-23T04:53:51;94954.75;;;2.79;100.00
6829;BME280;17930;48.592;8.868;2024-02-23T04:56:17;94945.00;;;2.71;100.00
6829;BME280;17930;48.592;8.868;2024-02-23T04:58:44;94940.84;;;2.80;100.00
6829;BME280;17930;48.592;8.868;2024-02-23T05:01:11;94954.78;;;2.74;100.00
6829;BME280;17930;48.592;8.868;2024-02-23T05:03:39;94942.50;;;2.66;100.00
6829;BME280;17930;48.592;8.868;2024-02-23T05:06:06;94941.66;;;3.08;100.00
6829;BME280;17930;48.592;8.868;2024-02-23T05:08:32;94952.38;;;3.20;100.00
6829;BME280;17930;48.592;8.868;2024-02-23T05:10:59;94949.47;;;2.99;100.00
6829;BME280;17930;48.592;8.868;2024-02-23T05:13:26;94956.44;;;2.93;100.00
6829;BME280;17930;48.592;8.868;2024-02-23T05:15:55;94957.94;;;2.99;100.00
6829;BME280;17930;48.592;8.868;2024-02-23T05:18:22;94962.53;;;3.07;100.00
6829;BME280;17930;48.592;8.868;2024-02-23T05:20:50;94955.69;;;2.93;100.00
6829;BME280;17930;48.592;8.868;2024-02-23T05:23:17;94959.84;;;2.89;100.00
6829;BME280;17930;48.592;8.868;2024-02-23T05:25:44;94973.13;;;3.01;100.00
6829;BME280;17930;48.592;8.868;2024-02-23T05:28:10;94962.53;;;3.07;100.00
6829;BME280;17930;48.592;8.868;2024-02-23T05:30:37;94974.38;;;3.08;100.00
6829;BME280;17930;48.592;8.868;2024-02-23T05:33:04;94975.91;;;3.09;100.00
6829;BME280;17930;48.592;8.868;2024-02-23T05:35:31;94982.81;;;3.13;100.00
6829;BME280;17930;48.592;8.868;2024-02-23T05:37:58;94983.66;;;3.04;100.00
6829;BME280;17930;48.592;8.868;2024-02-23T05:40:26;94992.19;;;3.00;100.00
6829;BME280;17930;48.592;8.868;2024-02-23T05:42:52;94992.69;;;3.02;100.00
6829;BME280;17930;48.592;8.868;2024-02-23T05:45:20;95000.34;;;3.11;100.00
6829;BME280;17930;48.592;8.868;2024-02-23T05:47:48;95002.34;;;3.19;100.00
6829;BME280;17930;48.592;8.868;2024-02-23T05:50:14;95004.34;;;3.27;100.00
6829;BME280;17930;48.592;8.868;2024-02-23T05:52:41;95002.63;;;3.18;100.00
6829;BME280;17930;48.592;8.868;2024-02-23T05:55:09;95004.41;;;3.17;100.00
6829;BME280;17930;48.592;8.868;2024-02-23T05:57:36;95011.06;;;3.23;100.00
6829;BME280;17930;48.592;8.868;2024-02-23T06:00:04;95000.50;;;3.25;100.00
6829;BME280;17930;48.592;8.868;2024-02-23T06:02:31;94998.16;;;3.28;100.00
6829;BME280;17930;48.592;8.868;2024-02-23T06:04:57;95007.66;;;3.33;100.00
6829;BME280;17930;48.592;8.868;2024-02-23T06:07:24;95014.09;;;3.30;100.00
6829;BME280;17930;48.592;8.868;2024-02-23T06:09:55;95008.41;;;3.33;100.00
6829;BME280;17930;48.592;8.868;2024-02-23T06:12:23;95008.75;;;3.55;100.00
6829;BME280;17930;48.592;8.868;2024-02-23T06:14:50;95014.94;;;3.54;100.00
6829;BME280;17930;48.592;8.868;2024-02-23T06:17:17;95017.16;;;3.37;100.00
6829;BME280;17930;48.592;8.868;2024-02-23T06:19:44;95021.72;;;3.45;100.00
6829;BME280;17930;48.592;8.868;2024-02-23T06:22:11;95021.72;;;3.45;100.00
6829;BME280;17930;48.592;8.868;2024-02-23T06:24:38;95029.63;;;3.20;100.00
6829;BME280;17930;48.592;8.868;2024-02-23T06:27:04;95023.09;;;3.33;100.00
6829;BME280;17930;48.592;8.868;2024-02-23T06:29:32;95019.31;;;3.20;100.00
6829;BME280;17930;48.592;8.868;2024-02-23T06:31:59;95018.16;;;3.41;100.00
6829;BME280;17930;48.592;8.868;2024-02-23T06:34:28;95024.94;;;3.27;100.00
6829;BME280;17930;48.592;8.868;2024-02-23T06:36:55;95021.22;;;3.10;100.00
6829;BME280;17930;48.592;8.868;2024-02-23T06:39:22;95031.84;;;2.94;100.00
6829;BME280;17930;48.592;8.868;2024-02-23T06:41:49;95028.81;;;2.87;100.00
6829;BME280;17930;48.592;8.868;2024-02-23T06:44:15;95028.31;;;2.85;100.00
6829;BME280;17930;48.592;8.868;2024-02-23T06:46:43;95022.41;;;2.84;100.00
6829;BME280;17930;48.592;8.868;2024-02-23T06:49:10;95026.22;;;2.92;100.00
6829;BME280;17930;48.592;8.868;2024-02-23T06:51:37;95026.75;;;2.89;100.00
6829;BME280;17930;48.592;8.868;2024-02-23T06:54:06;95022.06;;;2.96;100.00
6829;BME280;17930;48.592;8.868;2024-02-23T06:56:33;95026.69;;;2.99;100.00
6829;BME280;17930;48.592;8.868;2024-02-23T06:59:00;95038.94;;;3.16;100.00
6829;BME280;17930;48.592;8.868;2024-02-23T07:01:27;95042.94;;;3.32;100.00
6829;BME280;17930;48.592;8.868;2024-02-23T07:03:55;95051.09;;;3.44;100.00
6829;BME280;17930;48.592;8.868;2024-02-23T07:06:21;95050.25;;;3.54;100.00
6829;BME280;17930;48.592;8.868;2024-02-23T07:08:48;95043.09;;;3.46;100.00
6829;BME280;17930;48.592;8.868;2024-02-23T07:11:15;95042.72;;;3.62;100.00
6829;BME280;17930;48.592;8.868;2024-02-23T07:13:43;95051.09;;;3.77;100.00
6829;BME280;17930;48.592;8.868;2024-02-23T07:16:10;95044.78;;;3.60;100.00
6829;BME280;17930;48.592;8.868;2024-02-23T07:18:37;95037.47;;;3.72;100.00
6829;BME280;17930;48.592;8.868;2024-02-23T07:21:05;95035.81;;;3.86;100.00
6829;BME280;17930;48.592;8.868;2024-02-23T07:23:31;95033.00;;;3.82;100.00
6829;BME280;17930;48.592;8.868;2024-02-23T07:25:58;95035.03;;;3.85;100.00
6829;BME280;17930;48.592;8.868;2024-02-23T07:28:25;95033.19;;;3.91;100.00
6829;BME280;17930;48.592;8.868;2024-02-23T07:30:52;95030.06;;;3.94;100.00
6829;BME280;17930;48.592;8.868;2024-02-23T07:33:19;95028.69;;;4.01;100.00
6829;BME280;17930;48.592;8.868;2024-02-23T07:35:46;95025.25;;;4.10;100.00
6829;BME280;17930;48.592;8.868;2024-02-23T07:38:14;95017.22;;;4.12;100.00
6829;BME280;17930;48.592;8.868;2024-02-23T07:40:43;95021.09;;;4.14;100.00
6829;BME280;17930;48.592;8.868;2024-02-23T07:43:10;95019.97;;;4.20;100.00
6829;BME280;17930;48.592;8.868;2024-02-23T07:45:37;95010.66;;;4.24;100.00
6829;BME280;17930;48.592;8.868;2024-02-23T07:48:04;95009.78;;;4.10;100.00
6829;BME280;17930;48.592;8.868;2024-02-23T07:50:31;95010.81;;;4.09;100.00
6829;BME280;17930;48.592;8.868;2024-02-23T07:52:58;95017.59;;;4.01;100.00
6829;BME280;17930;48.592;8.868;2024-02-23T07:55:25;95021.19;;;4.05;100.00
6829;BME280;17930;48.592;8.868;2024-02-23T07:57:51;95013.50;;;4.00;100.00
6829;BME280;17930;48.592;8.868;2024-02-23T08:00:19;95014.47;;;4.04;100.00
6829;BME280;17930;48.592;8.868;2024-02-23T08:02:45;95022.63;;;4.15;100.00
6829;BME280;17930;48.592;8.868;2024-02-23T08:05:12;95024.09;;;4.21;100.00
6829;BME280;17930;48.592;8.868;2024-02-23T08:07:39;95023.66;;;4.14;100.00
6829;BME280;17930;48.592;8.868;2024-02-23T08:10:06;95024.16;;;4.16;100.00
6829;BME280;17930;48.592;8.868;2024-02-23T08:12:34;95022.84;;;4.19;100.00
6829;BME280;17930;48.592;8.868;2024-02-23T08:15:01;95014.81;;;4.20;100.00
6829;BME280;17930;48.592;8.868;2024-02-23T08:17:28;95018.53;;;4.56;100.00
6829;BME280;17930;48.592;8.868;2024-02-23T08:19:54;95025.06;;;4.72;100.00
6829;BME280;17930;48.592;8.868;2024-02-23T08:22:21;95024.81;;;4.50;100.00
6829;BME280;17930;48.592;8.868;2024-02-23T08:24:48;95020.06;;;4.57;100.00
6829;BME280;17930;48.592;8.868;2024-02-23T08:27:15;95024.97;;;4.58;100.00
6829;BME280;17930;48.592;8.868;2024-02-23T08:29:43;95021.75;;;4.48;100.00
6829;BME280;17930;48.592;8.868;2024-02-23T08:32:10;95020.75;;;4.44;100.00
6829;BME280;17930;48.592;8.868;2024-02-23T08:34:36;95014.66;;;4.35;100.00
6829;BME280;17930;48.592;8.868;2024-02-23T08:37:03;95012.44;;;4.47;100.00
6829;BME280;17930;48.592;8.868;2024-02-23T08:39:30;95006.25;;;4.48;100.00
6829;BME280;17930;48.592;8.868;2024-02-23T08:41:57;95002.13;;;4.89;100.00
6829;BME280;17930;48.592;8.868;2024-02-23T08:44:23;95010.06;;;5.10;100.00
6829;BME280;17930;48.592;8.868;2024-02-23T08:46:52;95003.06;;;5.29;100.00
6829;BME280;17930;48.592;8.868;2024-02-23T08:49:18;95006.09;;;5.18;100.00
6829;BME280;17930;48.592;8.868;2024-02-23T08:51:45;95015.81;;;5.07;100.00
6829;BME280;17930;48.592;8.868;2024-02-23T08:54:12;95012.03;;;5.18;100.00
6829;BME280;17930;48.592;8.868;2024-02-23T08:56:39;95002.91;;;5.39;100.00
6829;BME280;17930;48.592;8.868;2024-02-23T08:59:08;95009.19;;;5.52;100.00
6829;BME280;17930;48.592;8.868;2024-02-23T09:01:34;95009.06;;;5.43;100.00
6829;BME280;17930;48.592;8.868;2024-02-23T09:04:02;95002.91;;;5.89;100.00
6829;BME280;17930;48.592;8.868;2024-02-23T09:06:29;95001.97;;;6.25;100.00
6829;BME280;17930;48.592;8.868;2024-02-23T09:08:56;95001.50;;;6.99;100.00
6829;BME280;17930;48.592;8.868;2024-02-23T09:11:23;94990.78;;;7.70;100.00
6829;BME280;17930;48.592;8.868;2024-02-23T09:13:50;95001.44;;;7.69;100.00
6829;BME280;17930;48.592;8.868;2024-02-23T09:16:16;94997.34;;;7.46;100.00
6829;BME280;17930;48.592;8.868;2024-02-23T09:18:44;94996.53;;;6.89;100.00
6829;BME280;17930;48.592;8.868;2024-02-23T09:21:12;95003.97;;;7.17;100.00
6829;BME280;17930;48.592;8.868;2024-02-23T09:23:39;95005.78;;;7.82;100.00
6829;BME280;17930;48.592;8.868;2024-02-23T09:26:09;95007.22;;;7.66;100.00
6829;BME280;17930;48.592;8.868;2024-02-23T09:28:37;95007.56;;;8.17;100.00
6829;BME280;17930;48.592;8.868;2024-02-23T09:31:03;95009.47;;;7.59;100.00
6829;BME280;17930;48.592;8.868;2024-02-23T09:33:31;95003.81;;;7.35;100.00
6829;BME280;17930;48.592;8.868;2024-02-23T09:35:58;95013.38;;;7.13;100.00
6829;BME280;17930;48.592;8.868;2024-02-23T09:38:26;95018.66;;;6.73;100.00
6829;BME280;17930;48.592;8.868;2024-02-23T09:40:53;95018.19;;;6.44;100.00
6829;BME280;17930;48.592;8.868;2024-02-23T09:43:21;95020.75;;;6.31;100.00
6829;BME280;17930;48.592;8.868;2024-02-23T09:45:51;95018.66;;;6.19;100.00
6829;BME280;17930;48.592;8.868;2024-02-23T09:48:18;95020.19;;;6.20;100.00
6829;BME280;17930;48.592;8.868;2024-02-23T09:50:47;95022.97;;;6.37;100.00
6829;BME280;17930;48.592;8.868;2024-02-23T09:53:13;95026.34;;;6.24;100.00
6829;BME280;17930;48.592;8.868;2024-02-23T09:55:42;95019.47;;;6.02;100.00
6829;BME280;17930;48.592;8.868;2024-02-23T09:58:12;95015.09;;;6.15;100.00
6829;BME280;17930;48.592;8.868;2024-02-23T10:00:42;95020.59;;;6.27;100.00
6829;BME280;17930;48.592;8.868;2024-02-23T10:03:09;95021.72;;;6.21;100.00
6829;BME280;17930;48.592;8.868;2024-02-23T10:05:36;95025.38;;;6.20;100.00
6829;BME280;17930;48.592;8.868;2024-02-23T10:08:04;95020.59;;;6.27;100.00
6829;BME280;17930;48.592;8.868;2024-02-23T10:10:32;95024.78;;;6.23;100.00
6829;BME280;17930;48.592;8.868;2024-02-23T10:13:01;95046.03;;;5.94;100.00
6829;BME280;17930;48.592;8.868;2024-02-23T10:15:29;95038.66;;;6.01;100.00
6829;BME280;17930;48.592;8.868;2024-02-23T10:17:56;95041.28;;;6.27;100.00
6829;BME280;17930;48.592;8.868;2024-02-23T10:20:23;95039.28;;;6.38;100.00
6829;BME280;17930;48.592;8.868;2024-02-23T10:22:50;95043.59;;;6.29;100.00
6829;BME280;17930;48.592;8.868;2024-02-23T10:25:19;95039.75;;;6.40;100.00
6829;BME280;17930;48.592;8.868;2024-02-23T10:27:46;95042.81;;;6.42;100.00
6829;BME280;17930;48.592;8.868;2024-02-23T10:30:14;95041.66;;;6.48;100.00
6829;BME280;17930;48.592;8.868;2024-02-23T10:32:41;95038.78;;;6.49;100.00
6829;BME280;17930;48.592;8.868;2024-02-23T10:35:11;95031.78;;;6.63;100.00
6829;BME280;17930;48.592;8.868;2024-02-23T10:37:41;95025.41;;;6.96;100.00
6829;BME280;17930;48.592;8.868;2024-02-23T10:40:11;95036.34;;;7.41;100.00
6829;BME280;17930;48.592;8.868;2024-02-23T10:42:38;95034.78;;;8.06;100.00
6829;BME280;17930;48.592;8.868;2024-02-23T10:45:06;95034.34;;;8.72;100.00
6829;BME280;17930;48.592;8.868;2024-02-23T10:47:35;95022.47;;;9.14;100.00
6829;BME280;17930;48.592;8.868;2024-02-23T10:50:03;95030.16;;;9.18;100.00
6829;BME280;17930;48.592;8.868;2024-02-23T10:52:30;95034.81;;;8.74;100.00
6829;BME280;17930;48.592;8.868;2024-02-23T10:55:00;95029.16;;;8.34;100.00
6829;BME280;17930;48.592;8.868;2024-02-23T10:57:27;95029.41;;;8.24;100.00
6829;BME280;17930;48.592;8.868;2024-02-23T10:59:54;95016.31;;;8.37;100.00
6829;BME280;17930;48.592;8.868;2024-02-23T11:02:22;95014.75;;;8.19;100.00
6829;BME280;17930;48.592;8.868;2024-02-23T11:04:55;95012.47;;;8.26;100.00
6829;BME280;17930;48.592;8.868;2024-02-23T11:07:22;95016.97;;;8.43;100.00
6829;BME280;17930;48.592;8.868;2024-02-23T11:09:52;95007.34;;;8.43;100.00
6829;BME280;17930;48.592;8.868;2024-02-23T11:12:22;95011.63;;;8.39;100.00
6829;BME280;17930;48.592;8.868;2024-02-23T11:14:50;95010.78;;;8.30;100.00
6829;BME280;17930;48.592;8.868;2024-02-23T11:17:17;95020.72;;;7.98;100.00
6829;BME280;17930;48.592;8.868;2024-02-23T11:19:46;95006.19;;;7.67;100.00
6829;BME280;17930;48.592;8.868;2024-02-23T11:22:14;95017.41;;;7.63;100.00
6829;BME280;17930;48.592;8.868;2024-02-23T11:24:43;95010.63;;;7.75;100.00
6829;BME280;17930;48.592;8.868;2024-02-23T11:27:13;95004.78;;;7.91;100.00
6829;BME280;17930;48.592;8.868;2024-02-23T11:29:42;94997.06;;;8.00;100.00
6829;BME280;17930;48.592;8.868;2024-02-23T11:32:13;94994.66;;;8.12;100.00
6829;BME280;17930;48.592;8.868;2024-02-23T11:34:40;95005.88;;;8.20;100.00
6829;BME280;17930;48.592;8.868;2024-02-23T11:37:09;95001.50;;;8.29;100.00
6829;BME280;17930;48.592;8.868;2024-02-23T11:39:38;95006.66;;;8.21;100.00
6829;BME280;17930;48.592;8.868;2024-02-23T11:42:06;94997.88;;;8.47;100.00
6829;BME280;17930;48.592;8.868;2024-02-23T11:44:33;95000.81;;;8.54;100.00
6829;BME280;17930;48.592;8.868;2024-02-23T11:47:00;95010.56;;;8.49;100.00
6829;BME280;17930;48.592;8.868;2024-02-23T11:49:28;95001.34;;;8.34;100.00
6829;BME280;17930;48.592;8.868;2024-02-23T11:51:55;94997.72;;;8.44;100.00
6829;BME280;17930;48.592;8.868;2024-02-23T11:54:22;94998.97;;;8.46;100.00
6829;BME280;17930;48.592;8.868;2024-02-23T11:56:51;95000.03;;;8.54;100.00
6829;BME280;17930;48.592;8.868;2024-02-23T11:59:18;94987.16;;;8.40;100.00
6829;BME280;17930;48.592;8.868;2024-02-23T12:01:45;94992.38;;;8.49;100.00
6829;BME280;17930;48.592;8.868;2024-02-23T12:04:13;94989.72;;;8.79;100.00
6829;BME280;17930;48.592;8.868;2024-02-23T12:06:42;94979.34;;;9.46;100.00
6829;BME280;17930;48.592;8.868;2024-02-23T12:09:09;94975.75;;;9.84;100.00
6829;BME280;17930;48.592;8.868;2024-02-23T12:11:36;94980.88;;;9.56;100.00
6829;BME280;17930;48.592;8.868;2024-02-23T12:14:05;94971.41;;;9.34;100.00
6829;BME280;17930;48.592;8.868;2024-02-23T12:16:33;94965.50;;;9.88;100.00
6829;BME280;17930;48.592;8.868;2024-02-23T12:19:01;94964.03;;;10.24;100.00
6829;BME280;17930;48.592;8.868;2024-02-23T12:21:27;94959.41;;;9.75;100.00
6829;BME280;17930;48.592;8.868;2024-02-23T12:23:54;94973.38;;;9.04;100.00
6829;BME280;17930;48.592;8.868;2024-02-23T12:26:21;94966.34;;;9.04;100.00
6829;BME280;17930;48.592;8.868;2024-02-23T12:28:48;94975.06;;;8.83;100.00
6829;BME280;17930;48.592;8.868;2024-02-23T12:31:23;94981.13;;;8.70;100.00
6829;BME280;17930;48.592;8.868;2024-02-23T12:33:50;94970.44;;;8.63;100.00
6829;BME280;17930;48.592;8.868;2024-02-23T12:36:17;94974.03;;;8.45;100.00
6829;BME280;17930;48.592;8.868;2024-02-23T12:38:43;94963.47;;;8.42;100.00
6829;BME280;17930;48.592;8.868;2024-02-23T12:41:10;94966.06;;;8.33;100.00
6829;BME280;17930;48.592;8.868;2024-02-23T12:43:37;94972.56;;;8.14;100.00
6829;BME280;17930;48.592;8.868;2024-02-23T12:46:04;94969.22;;;8.14;100.00
6829;BME280;17930;48.592;8.868;2024-02-23T12:48:33;94969.97;;;7.92;100.00
6829;BME280;17930;48.592;8.868;2024-02-23T12:51:00;94970.41;;;7.86;100.00
6829;BME280;17930;48.592;8.868;2024-02-23T12:53:31;94973.53;;;8.05;100.00
6829;BME280;17930;48.592;8.868;2024-02-23T12:56:00;94963.16;;;8.35;100.00
6829;BME280;17930;48.592;8.868;2024-02-23T12:58:27;94971.00;;;8.43;100.00
6829;BME280;17930;48.592;8.868;2024-02-23T13:00:54;94974.81;;;8.54;100.00
6829;BME280;17930;48.592;8.868;2024-02-23T13:03:21;94974.66;;;8.42;100.00
6829;BME280;17930;48.592;8.868;2024-02-23T13:05:49;94963.94;;;8.44;100.00
6829;BME280;17930;48.592;8.868;2024-02-23T13:08:16;94965.78;;;8.43;100.00
6829;BME280;17930;48.592;8.868;2024-02-23T13:10:43;94968.56;;;8.55;100.00